sensor_id;sensor_type;location;lat;lon;timestamp;P1;durP1;ratioP1;P2;durP2;ratioP2
22829;SDS011;11581;51.250;6.778;2022-12-18T00:02:26;11.30;;;5.22;;
22829;SDS011;11581;51.250;6.778;2022-12-18T00:04:54;9.52;;;5.43;;
22829;SDS011;11581;51.250;6.778;2022-12-18T00:07:21;9.30;;;5.28;;
22829;SDS011;11581;51.250;6.778;2022-12-18T00:09:47;9.38;;;5.10;;
22829;SDS011;11581;51.250;6.778;2022-12-18T00:12:14;9.60;;;5.22;;
22829;SDS011;11581;51.250;6.778;2022-12-18T00:14:44;11.05;;;6.10;;
22829;SDS011;11581;51.250;6.778;2022-12-18T00:17:10;9.60;;;5.43;;
22829;SDS011;11581;51.250;6.778;2022-12-18T00:19:37;9.55;;;5.43;;
22829;SDS011;11581;51.250;6.778;2022-12-18T00:22:06;10.15;;;5.30;;
22829;SDS011;11581;51.250;6.778;2022-12-18T00:24:33;9.20;;;5.03;;
22829;SDS011;11581;51.250;6.778;2022-12-18T00:26:59;10.40;;;5.32;;
22829;SDS011;11581;51.250;6.778;2022-12-18T00:29:26;10.20;;;5.30;;
22829;SDS011;11581;51.250;6.778;2022-12-18T00:31:54;10.02;;;5.43;;
22829;SDS011;11581;51.250;6.778;2022-12-18T00:34:21;9.50;;;5.13;;
22829;SDS011;11581;51.250;6.778;2022-12-18T00:36:48;9.38;;;5.78;;
22829;SDS011;11581;51.250;6.778;2022-12-18T00:39:16;10.48;;;5.45;;
22829;SDS011;11581;51.250;6.778;2022-12-18T00:41:43;8.13;;;4.82;;
22829;SDS011;11581;51.250;6.778;2022-12-18T00:44:42;12.88;;;5.95;;
22829;SDS011;11581;51.250;6.778;2022-12-18T00:47:09;9.75;;;5.30;;
22829;SDS011;11581;51.250;6.778;2022-12-18T00:49:36;10.95;;;5.82;;
22829;SDS011;11581;51.250;6.778;2022-12-18T00:52:03;10.90;;;5.70;;
22829;SDS011;11581;51.250;6.778;2022-12-18T00:54:31;12.15;;;5.63;;
22829;SDS011;11581;51.250;6.778;2022-12-18T00:56:59;10.43;;;5.70;;
22829;SDS011;11581;51.250;6.778;2022-12-18T00:59:25;10.75;;;5.18;;
22829;SDS011;11581;51.250;6.778;2022-12-18T01:01:52;10.73;;;5.32;;
22829;SDS011;11581;51.250;6.778;2022-12-18T01:04:19;9.98;;;5.45;;
22829;SDS011;11581;51.250;6.778;2022-12-18T01:06:46;10.23;;;4.68;;
22829;SDS011;11581;51.250;6.778;2022-12-18T01:09:13;8.82;;;4.68;;
22829;SDS011;11581;51.250;6.778;2022-12-18T01:11:41;13.38;;;6.50;;
22829;SDS011;11581;51.250;6.778;2022-12-18T01:14:09;10.10;;;5.57;;
22829;SDS011;11581;51.250;6.778;2022-12-18T01:16:36;10.18;;;5.47;;
22829;SDS011;11581;51.250;6.778;2022-12-18T01:19:03;10.77;;;5.70;;
22829;SDS011;11581;51.250;6.778;2022-12-18T01:21:30;11.13;;;5.25;;
22829;SDS011;11581;51.250;6.778;2022-12-18T01:23:57;10.40;;;5.50;;
22829;SDS011;11581;51.250;6.778;2022-12-18T01:26:24;11.02;;;5.63;;
22829;SDS011;11581;51.250;6.778;2022-12-18T01:28:55;8.98;;;5.15;;
22829;SDS011;11581;51.250;6.778;2022-12-18T01:31:24;9.65;;;5.95;;
22829;SDS011;11581;51.250;6.778;2022-12-18T01:33:53;10.10;;;5.38;;
22829;SDS011;11581;51.250;6.778;2022-12-18T01:36:22;9.98;;;4.70;;
22829;SDS011;11581;51.250;6.778;2022-12-18T01:38:51;12.13;;;5.38;;
22829;SDS011;11581;51.250;6.778;2022-12-18T01:41:20;11.73;;;5.75;;
22829;SDS011;11581;51.250;6.778;2022-12-18T01:43:50;8.27;;;4.88;;
22829;SDS011;11581;51.250;6.778;2022-12-18T01:46:25;10.82;;;5.75;;
22829;SDS011;11581;51.250;6.778;2022-12-18T01:48:55;11.00;;;5.13;;
22829;SDS011;11581;51.250;6.778;2022-12-18T01:51:27;10.65;;;5.20;;
22829;SDS011;11581;51.250;6.778;2022-12-18T01:53:57;12.13;;;4.97;;
22829;SDS011;11581;51.250;6.778;2022-12-18T01:56:25;11.93;;;6.40;;
22829;SDS011;11581;51.250;6.778;2022-12-18T01:58:54;9.63;;;4.82;;
22829;SDS011;11581;51.250;6.778;2022-12-18T02:01:27;10.18;;;5.63;;
22829;SDS011;11581;51.250;6.778;2022-12-18T02:04:13;10.27;;;5.43;;
22829;SDS011;11581;51.250;6.778;2022-12-18T02:06:46;13.70;;;5.88;;
22829;SDS011;11581;51.250;6.778;2022-12-18T02:09:23;10.27;;;5.18;;
22829;SDS011;11581;51.250;6.778;2022-12-18T02:11:59;10.52;;;5.95;;
22829;SDS011;11581;51.250;6.778;2022-12-18T02:14:36;11.05;;;5.70;;
22829;SDS011;11581;51.250;6.778;2022-12-18T02:17:13;12.07;;;6.00;;
22829;SDS011;11581;51.250;6.778;2022-12-18T02:19:47;12.20;;;5.40;;
22829;SDS011;11581;51.250;6.778;2022-12-18T02:22:26;9.43;;;5.28;;
22829;SDS011;11581;51.250;6.778;2022-12-18T02:25:05;11.15;;;6.50;;
22829;SDS011;11581;51.250;6.778;2022-12-18T02:27:45;9.15;;;5.20;;
22829;SDS011;11581;51.250;6.778;2022-12-18T02:30:15;9.60;;;5.65;;
22829;SDS011;11581;51.250;6.778;2022-12-18T02:32:47;12.73;;;5.95;;
22829;SDS011;11581;51.250;6.778;2022-12-18T02:35:19;11.88;;;6.00;;
22829;SDS011;11581;51.250;6.778;2022-12-18T02:37:55;10.77;;;5.88;;
22829;SDS011;11581;51.250;6.778;2022-12-18T02:40:23;11.30;;;5.13;;
22829;SDS011;11581;51.250;6.778;2022-12-18T02:42:54;9.98;;;5.25;;
22829;SDS011;11581;51.250;6.778;2022-12-18T02:45:25;12.75;;;5.68;;
22829;SDS011;11581;51.250;6.778;2022-12-18T02:47:53;11.77;;;5.50;;
22829;SDS011;11581;51.250;6.778;2022-12-18T02:50:22;10.80;;;5.45;;
22829;SDS011;11581;51.250;6.778;2022-12-18T02:53:00;10.30;;;5.78;;
22829;SDS011;11581;51.250;6.778;2022-12-18T02:55:39;10.10;;;5.35;;
22829;SDS011;11581;51.250;6.778;2022-12-18T02:58:25;9.77;;;5.10;;
22829;SDS011;11581;51.250;6.778;2022-12-18T03:01:03;11.60;;;5.70;;
22829;SDS011;11581;51.250;6.778;2022-12-18T03:03:38;12.05;;;6.18;;
22829;SDS011;11581;51.250;6.778;2022-12-18T03:06:08;8.50;;;4.93;;
22829;SDS011;11581;51.250;6.778;2022-12-18T03:08:42;10.48;;;5.00;;
22829;SDS011;11581;51.250;6.778;2022-12-18T03:11:14;8.98;;;4.85;;
22829;SDS011;11581;51.250;6.778;2022-12-18T03:14:03;7.75;;;4.75;;
22829;SDS011;11581;51.250;6.778;2022-12-18T03:16:33;8.95;;;5.18;;
22829;SDS011;11581;51.250;6.778;2022-12-18T03:19:04;11.55;;;5.88;;
22829;SDS011;11581;51.250;6.778;2022-12-18T03:21:40;9.73;;;5.07;;
22829;SDS011;11581;51.250;6.778;2022-12-18T03:24:15;10.90;;;5.15;;
22829;SDS011;11581;51.250;6.778;2022-12-18T03:26:46;8.90;;;5.22;;
22829;SDS011;11581;51.250;6.778;2022-12-18T03:29:18;9.50;;;5.00;;
22829;SDS011;11581;51.250;6.778;2022-12-18T03:31:49;11.90;;;5.40;;
22829;SDS011;11581;51.250;6.778;2022-12-18T03:34:21;8.27;;;4.97;;
22829;SDS011;11581;51.250;6.778;2022-12-18T03:36:53;9.88;;;5.63;;
22829;SDS011;11581;51.250;6.778;2022-12-18T03:39:22;7.85;;;4.47;;
22829;SDS011;11581;51.250;6.778;2022-12-18T03:41:58;8.68;;;4.70;;
22829;SDS011;11581;51.250;6.778;2022-12-18T03:44:39;8.10;;;4.63;;
22829;SDS011;11581;51.250;6.778;2022-12-18T03:47:13;8.35;;;5.28;;
22829;SDS011;11581;51.250;6.778;2022-12-18T03:49:46;9.45;;;5.32;;
22829;SDS011;11581;51.250;6.778;2022-12-18T03:52:20;9.52;;;4.90;;
22829;SDS011;11581;51.250;6.778;2022-12-18T03:54:54;12.82;;;4.68;;
22829;SDS011;11581;51.250;6.778;2022-12-18T03:57:25;12.15;;;4.82;;
22829;SDS011;11581;51.250;6.778;2022-12-18T03:59:58;9.50;;;5.38;;
22829;SDS011;11581;51.250;6.778;2022-12-18T04:02:41;8.63;;;5.00;;
22829;SDS011;11581;51.250;6.778;2022-12-18T04:05:14;8.40;;;4.97;;
22829;SDS011;11581;51.250;6.778;2022-12-18T04:07:44;10.07;;;5.15;;
22829;SDS011;11581;51.250;6.778;2022-12-18T04:10:14;8.90;;;4.90;;
22829;SDS011;11581;51.250;6.778;2022-12-18T04:12:44;8.20;;;4.90;;
22829;SDS011;11581;51.250;6.778;2022-12-18T04:15:14;8.70;;;4.82;;
22829;SDS011;11581;51.250;6.778;2022-12-18T04:17:43;10.13;;;5.22;;
22829;SDS011;11581;51.250;6.778;2022-12-18T04:20:17;8.75;;;4.88;;
22829;SDS011;11581;51.250;6.778;2022-12-18T04:22:44;8.57;;;4.85;;
22829;SDS011;11581;51.250;6.778;2022-12-18T04:25:12;9.43;;;4.65;;
22829;SDS011;11581;51.250;6.778;2022-12-18T04:27:49;8.98;;;5.00;;
22829;SDS011;11581;51.250;6.778;2022-12-18T04:30:18;9.15;;;4.35;;
22829;SDS011;11581;51.250;6.778;2022-12-18T04:32:45;11.00;;;4.45;;
22829;SDS011;11581;51.250;6.778;2022-12-18T04:35:12;10.52;;;5.00;;
22829;SDS011;11581;51.250;6.778;2022-12-18T04:37:41;9.30;;;5.13;;
22829;SDS011;11581;51.250;6.778;2022-12-18T04:40:09;9.07;;;4.68;;
22829;SDS011;11581;51.250;6.778;2022-12-18T04:42:41;9.32;;;4.85;;
22829;SDS011;11581;51.250;6.778;2022-12-18T04:45:08;10.40;;;4.93;;
22829;SDS011;11581;51.250;6.778;2022-12-18T04:47:37;8.82;;;4.93;;
22829;SDS011;11581;51.250;6.778;2022-12-18T04:50:06;10.55;;;5.18;;
22829;SDS011;11581;51.250;6.778;2022-12-18T04:52:35;9.63;;;5.80;;
22829;SDS011;11581;51.250;6.778;2022-12-18T04:55:01;9.18;;;4.85;;
22829;SDS011;11581;51.250;6.778;2022-12-18T04:57:29;7.93;;;4.63;;
22829;SDS011;11581;51.250;6.778;2022-12-18T04:59:56;9.38;;;4.88;;
22829;SDS011;11581;51.250;6.778;2022-12-18T05:02:22;9.23;;;4.63;;
22829;SDS011;11581;51.250;6.778;2022-12-18T05:04:51;7.97;;;4.65;;
22829;SDS011;11581;51.250;6.778;2022-12-18T05:07:17;10.70;;;4.97;;
22829;SDS011;11581;51.250;6.778;2022-12-18T05:09:44;6.97;;;3.85;;
22829;SDS011;11581;51.250;6.778;2022-12-18T05:12:11;8.07;;;4.60;;
22829;SDS011;11581;51.250;6.778;2022-12-18T05:14:38;7.32;;;4.53;;
22829;SDS011;11581;51.250;6.778;2022-12-18T05:17:05;11.50;;;5.38;;
22829;SDS011;11581;51.250;6.778;2022-12-18T05:19:32;10.27;;;4.85;;
22829;SDS011;11581;51.250;6.778;2022-12-18T05:22:00;8.23;;;4.63;;
22829;SDS011;11581;51.250;6.778;2022-12-18T05:24:26;9.10;;;4.95;;
22829;SDS011;11581;51.250;6.778;2022-12-18T05:26:53;8.48;;;4.93;;
22829;SDS011;11581;51.250;6.778;2022-12-18T05:29:20;10.73;;;4.95;;
22829;SDS011;11581;51.250;6.778;2022-12-18T05:31:47;9.40;;;4.43;;
22829;SDS011;11581;51.250;6.778;2022-12-18T05:34:14;9.32;;;4.82;;
22829;SDS011;11581;51.250;6.778;2022-12-18T05:36:41;8.38;;;4.93;;
22829;SDS011;11581;51.250;6.778;2022-12-18T05:39:09;8.48;;;4.43;;
22829;SDS011;11581;51.250;6.778;2022-12-18T05:41:36;8.95;;;4.72;;
22829;SDS011;11581;51.250;6.778;2022-12-18T05:44:03;8.95;;;4.50;;
22829;SDS011;11581;51.250;6.778;2022-12-18T05:46:30;9.23;;;4.28;;
22829;SDS011;11581;51.250;6.778;2022-12-18T05:48:58;8.05;;;4.60;;
22829;SDS011;11581;51.250;6.778;2022-12-18T05:51:26;9.38;;;4.78;;
22829;SDS011;11581;51.250;6.778;2022-12-18T05:53:53;8.77;;;4.47;;
22829;SDS011;11581;51.250;6.778;2022-12-18T05:56:22;8.40;;;4.93;;
22829;SDS011;11581;51.250;6.778;2022-12-18T05:58:51;7.25;;;4.35;;
22829;SDS011;11581;51.250;6.778;2022-12-18T06:01:20;7.45;;;4.40;;
22829;SDS011;11581;51.250;6.778;2022-12-18T06:03:48;11.07;;;4.93;;
22829;SDS011;11581;51.250;6.778;2022-12-18T06:06:15;8.90;;;4.78;;
22829;SDS011;11581;51.250;6.778;2022-12-18T06:08:44;7.15;;;4.53;;
22829;SDS011;11581;51.250;6.778;2022-12-18T06:11:12;7.65;;;4.32;;
22829;SDS011;11581;51.250;6.778;2022-12-18T06:13:43;17.10;;;5.22;;
22829;SDS011;11581;51.250;6.778;2022-12-18T06:16:10;8.77;;;5.20;;
22829;SDS011;11581;51.250;6.778;2022-12-18T06:18:37;8.80;;;4.63;;
22829;SDS011;11581;51.250;6.778;2022-12-18T06:21:04;7.63;;;4.50;;
22829;SDS011;11581;51.250;6.778;2022-12-18T06:23:31;8.93;;;4.47;;
22829;SDS011;11581;51.250;6.778;2022-12-18T06:25:58;8.70;;;4.85;;
22829;SDS011;11581;51.250;6.778;2022-12-18T06:28:25;10.90;;;5.13;;
22829;SDS011;11581;51.250;6.778;2022-12-18T06:30:53;9.60;;;4.80;;
22829;SDS011;11581;51.250;6.778;2022-12-18T06:33:21;10.00;;;4.70;;
22829;SDS011;11581;51.250;6.778;2022-12-18T06:35:48;7.30;;;4.65;;
22829;SDS011;11581;51.250;6.778;2022-12-18T06:38:14;8.45;;;4.78;;
22829;SDS011;11581;51.250;6.778;2022-12-18T06:40:41;8.77;;;4.82;;
22829;SDS011;11581;51.250;6.778;2022-12-18T06:43:08;8.27;;;4.47;;
22829;SDS011;11581;51.250;6.778;2022-12-18T06:45:35;9.70;;;4.32;;
22829;SDS011;11581;51.250;6.778;2022-12-18T06:48:03;8.00;;;4.53;;
22829;SDS011;11581;51.250;6.778;2022-12-18T06:50:30;8.18;;;4.30;;
22829;SDS011;11581;51.250;6.778;2022-12-18T06:52:56;8.50;;;4.60;;
22829;SDS011;11581;51.250;6.778;2022-12-18T06:55:23;9.38;;;4.70;;
22829;SDS011;11581;51.250;6.778;2022-12-18T06:57:50;9.13;;;4.70;;
22829;SDS011;11581;51.250;6.778;2022-12-18T07:00:17;8.13;;;3.97;;
22829;SDS011;11581;51.250;6.778;2022-12-18T07:02:44;8.75;;;4.10;;
22829;SDS011;11581;51.250;6.778;2022-12-18T07:05:12;10.75;;;4.65;;
22829;SDS011;11581;51.250;6.778;2022-12-18T07:07:39;9.27;;;5.07;;
22829;SDS011;11581;51.250;6.778;2022-12-18T07:10:06;9.38;;;5.32;;
22829;SDS011;11581;51.250;6.778;2022-12-18T07:12:34;11.73;;;5.05;;
22829;SDS011;11581;51.250;6.778;2022-12-18T07:15:00;8.63;;;4.57;;
22829;SDS011;11581;51.250;6.778;2022-12-18T07:17:27;9.05;;;4.57;;
22829;SDS011;11581;51.250;6.778;2022-12-18T07:19:54;8.60;;;4.63;;
22829;SDS011;11581;51.250;6.778;2022-12-18T07:22:23;12.95;;;5.22;;
22829;SDS011;11581;51.250;6.778;2022-12-18T07:24:51;8.43;;;4.70;;
22829;SDS011;11581;51.250;6.778;2022-12-18T07:27:18;7.15;;;3.97;;
22829;SDS011;11581;51.250;6.778;2022-12-18T07:29:45;11.75;;;4.60;;
22829;SDS011;11581;51.250;6.778;2022-12-18T07:32:12;10.60;;;5.82;;
22829;SDS011;11581;51.250;6.778;2022-12-18T07:34:40;10.43;;;5.50;;
22829;SDS011;11581;51.250;6.778;2022-12-18T07:37:07;9.38;;;5.30;;
22829;SDS011;11581;51.250;6.778;2022-12-18T07:39:35;11.68;;;5.78;;
22829;SDS011;11581;51.250;6.778;2022-12-18T07:42:02;9.02;;;4.20;;
22829;SDS011;11581;51.250;6.778;2022-12-18T07:44:47;11.60;;;5.25;;
22829;SDS011;11581;51.250;6.778;2022-12-18T07:47:14;8.40;;;4.43;;
22829;SDS011;11581;51.250;6.778;2022-12-18T07:49:41;11.15;;;5.30;;
22829;SDS011;11581;51.250;6.778;2022-12-18T07:52:08;10.98;;;6.07;;
22829;SDS011;11581;51.250;6.778;2022-12-18T07:54:36;10.55;;;5.40;;
22829;SDS011;11581;51.250;6.778;2022-12-18T07:57:03;8.35;;;4.57;;
22829;SDS011;11581;51.250;6.778;2022-12-18T07:59:30;10.15;;;5.03;;
22829;SDS011;11581;51.250;6.778;2022-12-18T08:01:57;10.40;;;5.40;;
22829;SDS011;11581;51.250;6.778;2022-12-18T08:04:25;8.25;;;5.13;;
22829;SDS011;11581;51.250;6.778;2022-12-18T08:06:52;10.65;;;5.75;;
22829;SDS011;11581;51.250;6.778;2022-12-18T08:09:19;8.55;;;5.15;;
22829;SDS011;11581;51.250;6.778;2022-12-18T08:11:48;9.80;;;5.18;;
22829;SDS011;11581;51.250;6.778;2022-12-18T08:14:14;9.25;;;4.63;;
22829;SDS011;11581;51.250;6.778;2022-12-18T08:16:41;11.82;;;5.53;;
22829;SDS011;11581;51.250;6.778;2022-12-18T08:19:11;8.70;;;4.95;;
22829;SDS011;11581;51.250;6.778;2022-12-18T08:21:41;9.48;;;5.47;;
22829;SDS011;11581;51.250;6.778;2022-12-18T08:24:09;8.98;;;5.22;;
22829;SDS011;11581;51.250;6.778;2022-12-18T08:26:36;9.27;;;5.25;;
22829;SDS011;11581;51.250;6.778;2022-12-18T08:29:04;9.02;;;4.95;;
22829;SDS011;11581;51.250;6.778;2022-12-18T08:31:31;9.60;;;5.13;;
22829;SDS011;11581;51.250;6.778;2022-12-18T08:33:58;10.50;;;4.85;;
22829;SDS011;11581;51.250;6.778;2022-12-18T08:36:24;9.02;;;4.88;;
22829;SDS011;11581;51.250;6.778;2022-12-18T08:38:52;8.25;;;4.50;;
22829;SDS011;11581;51.250;6.778;2022-12-18T08:41:19;12.80;;;5.20;;
22829;SDS011;11581;51.250;6.778;2022-12-18T08:43:46;9.13;;;5.60;;
22829;SDS011;11581;51.250;6.778;2022-12-18T08:46:34;7.70;;;5.22;;
22829;SDS011;11581;51.250;6.778;2022-12-18T08:49:03;9.35;;;5.80;;
22829;SDS011;11581;51.250;6.778;2022-12-18T08:51:31;9.75;;;5.28;;
22829;SDS011;11581;51.250;6.778;2022-12-18T08:53:59;11.75;;;5.05;;
22829;SDS011;11581;51.250;6.778;2022-12-18T08:56:26;10.45;;;5.10;;
22829;SDS011;11581;51.250;6.778;2022-12-18T08:58:53;10.18;;;5.07;;
22829;SDS011;11581;51.250;6.778;2022-12-18T09:01:22;9.82;;;5.57;;
22829;SDS011;11581;51.250;6.778;2022-12-18T09:03:51;10.48;;;5.82;;
22829;SDS011;11581;51.250;6.778;2022-12-18T09:06:19;11.68;;;5.43;;
22829;SDS011;11581;51.250;6.778;2022-12-18T09:08:48;10.13;;;5.50;;
22829;SDS011;11581;51.250;6.778;2022-12-18T09:11:19;9.98;;;5.43;;
22829;SDS011;11581;51.250;6.778;2022-12-18T09:13:47;11.63;;;5.22;;
22829;SDS011;11581;51.250;6.778;2022-12-18T09:16:14;8.52;;;4.78;;
22829;SDS011;11581;51.250;6.778;2022-12-18T09:18:41;9.93;;;5.55;;
22829;SDS011;11581;51.250;6.778;2022-12-18T09:21:10;9.07;;;5.43;;
22829;SDS011;11581;51.250;6.778;2022-12-18T09:23:38;9.90;;;5.07;;
22829;SDS011;11581;51.250;6.778;2022-12-18T09:26:04;9.25;;;4.85;;
22829;SDS011;11581;51.250;6.778;2022-12-18T09:28:31;8.43;;;5.30;;
22829;SDS011;11581;51.250;6.778;2022-12-18T09:31:02;9.45;;;4.78;;
22829;SDS011;11581;51.250;6.778;2022-12-18T09:33:30;9.70;;;5.63;;
22829;SDS011;11581;51.250;6.778;2022-12-18T09:35:57;8.77;;;5.10;;
22829;SDS011;11581;51.250;6.778;2022-12-18T09:38:29;11.65;;;5.78;;
22829;SDS011;11581;51.250;6.778;2022-12-18T09:40:56;10.55;;;5.40;;
22829;SDS011;11581;51.250;6.778;2022-12-18T09:43:27;10.07;;;5.65;;
22829;SDS011;11581;51.250;6.778;2022-12-18T09:46:00;8.73;;;4.97;;
22829;SDS011;11581;51.250;6.778;2022-12-18T09:48:32;8.82;;;5.00;;
22829;SDS011;11581;51.250;6.778;2022-12-18T09:51:04;9.05;;;5.20;;
22829;SDS011;11581;51.250;6.778;2022-12-18T09:53:40;8.40;;;4.85;;
22829;SDS011;11581;51.250;6.778;2022-12-18T09:56:17;8.20;;;4.75;;
22829;SDS011;11581;51.250;6.778;2022-12-18T09:58:50;8.77;;;5.20;;
22829;SDS011;11581;51.250;6.778;2022-12-18T10:01:27;8.40;;;4.95;;
22829;SDS011;11581;51.250;6.778;2022-12-18T10:03:56;8.60;;;5.43;;
22829;SDS011;11581;51.250;6.778;2022-12-18T10:06:24;8.70;;;4.72;;
22829;SDS011;11581;51.250;6.778;2022-12-18T10:09:00;8.25;;;4.75;;
22829;SDS011;11581;51.250;6.778;2022-12-18T10:11:34;8.27;;;4.90;;
22829;SDS011;11581;51.250;6.778;2022-12-18T10:14:10;9.45;;;5.55;;
22829;SDS011;11581;51.250;6.778;2022-12-18T10:16:47;6.88;;;4.72;;
22829;SDS011;11581;51.250;6.778;2022-12-18T10:19:34;10.38;;;5.22;;
22829;SDS011;11581;51.250;6.778;2022-12-18T10:22:20;10.00;;;5.28;;
22829;SDS011;11581;51.250;6.778;2022-12-18T10:24:55;11.30;;;5.60;;
22829;SDS011;11581;51.250;6.778;2022-12-18T10:27:29;11.00;;;5.88;;
22829;SDS011;11581;51.250;6.778;2022-12-18T10:29:57;9.57;;;5.57;;
22829;SDS011;11581;51.250;6.778;2022-12-18T10:32:24;9.70;;;5.28;;
22829;SDS011;11581;51.250;6.778;2022-12-18T10:34:53;8.43;;;5.10;;
22829;SDS011;11581;51.250;6.778;2022-12-18T10:37:22;9.10;;;5.10;;
22829;SDS011;11581;51.250;6.778;2022-12-18T10:42:37;9.38;;;5.38;;
22829;SDS011;11581;51.250;6.778;2022-12-18T10:45:08;8.93;;;5.53;;
22829;SDS011;11581;51.250;6.778;2022-12-18T10:47:41;10.95;;;5.90;;
22829;SDS011;11581;51.250;6.778;2022-12-18T10:50:18;9.90;;;5.75;;
22829;SDS011;11581;51.250;6.778;2022-12-18T10:52:52;9.82;;;5.97;;
22829;SDS011;11581;51.250;6.778;2022-12-18T10:55:23;9.40;;;5.72;;
22829;SDS011;11581;51.250;6.778;2022-12-18T10:57:56;9.75;;;5.50;;
22829;SDS011;11581;51.250;6.778;2022-12-18T11:00:43;8.05;;;5.07;;
22829;SDS011;11581;51.250;6.778;2022-12-18T11:03:28;7.82;;;4.90;;
22829;SDS011;11581;51.250;6.778;2022-12-18T11:06:01;11.77;;;5.25;;
22829;SDS011;11581;51.250;6.778;2022-12-18T11:08:29;8.25;;;5.05;;
22829;SDS011;11581;51.250;6.778;2022-12-18T11:10:58;8.00;;;4.88;;
22829;SDS011;11581;51.250;6.778;2022-12-18T11:13:26;10.18;;;5.97;;
22829;SDS011;11581;51.250;6.778;2022-12-18T11:15:55;9.68;;;5.88;;
22829;SDS011;11581;51.250;6.778;2022-12-18T11:18:24;9.13;;;5.10;;
22829;SDS011;11581;51.250;6.778;2022-12-18T11:20:55;10.15;;;5.53;;
22829;SDS011;11581;51.250;6.778;2022-12-18T11:23:25;14.20;;;6.32;;
22829;SDS011;11581;51.250;6.778;2022-12-18T11:25:54;12.68;;;6.10;;
22829;SDS011;11581;51.250;6.778;2022-12-18T11:28:38;9.82;;;6.13;;
22829;SDS011;11581;51.250;6.778;2022-12-18T11:33:59;8.80;;;4.88;;
22829;SDS011;11581;51.250;6.778;2022-12-18T11:36:34;10.95;;;5.65;;
22829;SDS011;11581;51.250;6.778;2022-12-18T11:39:06;11.52;;;5.45;;
22829;SDS011;11581;51.250;6.778;2022-12-18T11:41:41;8.13;;;5.30;;
22829;SDS011;11581;51.250;6.778;2022-12-18T11:44:35;10.50;;;5.20;;
22829;SDS011;11581;51.250;6.778;2022-12-18T11:47:07;9.50;;;5.47;;
22829;SDS011;11581;51.250;6.778;2022-12-18T11:49:38;11.43;;;5.90;;
22829;SDS011;11581;51.250;6.778;2022-12-18T11:52:15;10.10;;;5.43;;
22829;SDS011;11581;51.250;6.778;2022-12-18T11:54:45;9.38;;;5.85;;
22829;SDS011;11581;51.250;6.778;2022-12-18T11:57:16;11.90;;;6.00;;
22829;SDS011;11581;51.250;6.778;2022-12-18T11:59:57;10.68;;;6.28;;
22829;SDS011;11581;51.250;6.778;2022-12-18T12:05:41;12.23;;;6.53;;
22829;SDS011;11581;51.250;6.778;2022-12-18T12:08:20;9.90;;;5.78;;
22829;SDS011;11581;51.250;6.778;2022-12-18T12:11:02;11.45;;;6.18;;
22829;SDS011;11581;51.250;6.778;2022-12-18T12:13:39;11.55;;;6.43;;
22829;SDS011;11581;51.250;6.778;2022-12-18T12:16:21;9.73;;;6.13;;
22829;SDS011;11581;51.250;6.778;2022-12-18T12:19:02;14.85;;;6.80;;
22829;SDS011;11581;51.250;6.778;2022-12-18T12:21:48;10.63;;;6.25;;
22829;SDS011;11581;51.250;6.778;2022-12-18T12:24:28;16.20;;;6.88;;
22829;SDS011;11581;51.250;6.778;2022-12-18T12:27:06;10.50;;;5.93;;
22829;SDS011;11581;51.250;6.778;2022-12-18T12:29:46;10.02;;;6.05;;
22829;SDS011;11581;51.250;6.778;2022-12-18T12:32:32;11.43;;;6.22;;
22829;SDS011;11581;51.250;6.778;2022-12-18T12:35:13;9.73;;;5.73;;
22829;SDS011;11581;51.250;6.778;2022-12-18T12:37:48;10.82;;;6.25;;
22829;SDS011;11581;51.250;6.778;2022-12-18T12:40:27;11.77;;;7.38;;
22829;SDS011;11581;51.250;6.778;2022-12-18T12:42:58;15.18;;;6.90;;
22829;SDS011;11581;51.250;6.778;2022-12-18T12:45:39;11.05;;;6.68;;
22829;SDS011;11581;51.250;6.778;2022-12-18T12:48:19;12.82;;;6.97;;
22829;SDS011;11581;51.250;6.778;2022-12-18T12:50:54;13.85;;;6.68;;
22829;SDS011;11581;51.250;6.778;2022-12-18T12:53:25;17.40;;;6.88;;
22829;SDS011;11581;51.250;6.778;2022-12-18T12:55:56;13.70;;;6.88;;
22829;SDS011;11581;51.250;6.778;2022-12-18T12:58:26;13.90;;;7.30;;
22829;SDS011;11581;51.250;6.778;2022-12-18T13:01:04;13.00;;;7.50;;
22829;SDS011;11581;51.250;6.778;2022-12-18T13:03:43;14.57;;;7.78;;
22829;SDS011;11581;51.250;6.778;2022-12-18T13:06:19;17.08;;;7.88;;
22829;SDS011;11581;51.250;6.778;2022-12-18T13:09:00;13.68;;;7.03;;
22829;SDS011;11581;51.250;6.778;2022-12-18T13:11:30;14.68;;;7.68;;
22829;SDS011;11581;51.250;6.778;2022-12-18T13:14:20;12.60;;;7.88;;
22829;SDS011;11581;51.250;6.778;2022-12-18T13:16:49;13.88;;;7.30;;
22829;SDS011;11581;51.250;6.778;2022-12-18T13:19:25;14.10;;;7.85;;
22829;SDS011;11581;51.250;6.778;2022-12-18T13:21:57;12.90;;;7.80;;
22829;SDS011;11581;51.250;6.778;2022-12-18T13:24:25;15.20;;;9.10;;
22829;SDS011;11581;51.250;6.778;2022-12-18T13:26:54;17.20;;;9.25;;
22829;SDS011;11581;51.250;6.778;2022-12-18T13:32:19;13.98;;;8.65;;
22829;SDS011;11581;51.250;6.778;2022-12-18T13:34:50;14.13;;;8.57;;
22829;SDS011;11581;51.250;6.778;2022-12-18T13:37:51;13.45;;;8.10;;
22829;SDS011;11581;51.250;6.778;2022-12-18T13:43:34;14.45;;;8.02;;
22829;SDS011;11581;51.250;6.778;2022-12-18T13:48:55;15.93;;;8.65;;
22829;SDS011;11581;51.250;6.778;2022-12-18T13:51:31;15.02;;;8.20;;
22829;SDS011;11581;51.250;6.778;2022-12-18T13:54:02;14.13;;;8.13;;
22829;SDS011;11581;51.250;6.778;2022-12-18T13:56:42;15.02;;;8.18;;
22829;SDS011;11581;51.250;6.778;2022-12-18T13:59:12;15.43;;;8.82;;
22829;SDS011;11581;51.250;6.778;2022-12-18T14:01:47;15.05;;;8.57;;
22829;SDS011;11581;51.250;6.778;2022-12-18T14:04:19;15.70;;;8.55;;
22829;SDS011;11581;51.250;6.778;2022-12-18T14:06:51;16.25;;;8.48;;
22829;SDS011;11581;51.250;6.778;2022-12-18T14:09:21;22.85;;;8.55;;
22829;SDS011;11581;51.250;6.778;2022-12-18T14:11:52;14.13;;;9.10;;
22829;SDS011;11581;51.250;6.778;2022-12-18T14:14:42;15.80;;;8.77;;
22829;SDS011;11581;51.250;6.778;2022-12-18T14:17:12;12.98;;;8.57;;
22829;SDS011;11581;51.250;6.778;2022-12-18T14:19:41;15.45;;;8.82;;
22829;SDS011;11581;51.250;6.778;2022-12-18T14:22:14;15.27;;;8.77;;
22829;SDS011;11581;51.250;6.778;2022-12-18T14:27:21;17.27;;;7.88;;
22829;SDS011;11581;51.250;6.778;2022-12-18T14:29:49;15.23;;;8.52;;
22829;SDS011;11581;51.250;6.778;2022-12-18T14:32:17;14.88;;;8.40;;
22829;SDS011;11581;51.250;6.778;2022-12-18T14:34:46;15.48;;;9.05;;
22829;SDS011;11581;51.250;6.778;2022-12-18T14:37:16;15.90;;;9.10;;
22829;SDS011;11581;51.250;6.778;2022-12-18T14:39:54;15.18;;;8.73;;
22829;SDS011;11581;51.250;6.778;2022-12-18T14:42:23;20.25;;;9.20;;
22829;SDS011;11581;51.250;6.778;2022-12-18T14:47:53;18.63;;;9.75;;
22829;SDS011;11581;51.250;6.778;2022-12-18T14:50:19;14.30;;;8.90;;
22829;SDS011;11581;51.250;6.778;2022-12-18T14:52:48;18.83;;;10.73;;
22829;SDS011;11581;51.250;6.778;2022-12-18T14:55:15;19.90;;;8.35;;
22829;SDS011;11581;51.250;6.778;2022-12-18T14:57:43;16.25;;;9.68;;
22829;SDS011;11581;51.250;6.778;2022-12-18T15:00:15;15.73;;;9.50;;
22829;SDS011;11581;51.250;6.778;2022-12-18T15:02:44;15.80;;;10.18;;
22829;SDS011;11581;51.250;6.778;2022-12-18T15:05:17;19.05;;;9.82;;
22829;SDS011;11581;51.250;6.778;2022-12-18T15:07:49;14.73;;;9.23;;
22829;SDS011;11581;51.250;6.778;2022-12-18T15:10:21;16.73;;;10.00;;
22829;SDS011;11581;51.250;6.778;2022-12-18T15:12:49;18.10;;;8.75;;
22829;SDS011;11581;51.250;6.778;2022-12-18T15:15:44;17.20;;;9.73;;
22829;SDS011;11581;51.250;6.778;2022-12-18T15:18:13;19.33;;;9.77;;
22829;SDS011;11581;51.250;6.778;2022-12-18T15:20:43;14.35;;;8.77;;
22829;SDS011;11581;51.250;6.778;2022-12-18T15:23:20;17.80;;;9.77;;
22829;SDS011;11581;51.250;6.778;2022-12-18T15:25:54;16.70;;;9.80;;
22829;SDS011;11581;51.250;6.778;2022-12-18T15:28:25;19.25;;;11.45;;